createdAt,value
2018-08-06T00:01:27.446Z,9.00
2018-08-06T00:03:56.653Z,12.13
2018-08-06T00:06:25.958Z,13.10
2018-08-06T00:08:55.302Z,10.33
2018-08-06T00:11:24.614Z,8.17
2018-08-06T00:13:53.962Z,10.38
2018-08-06T00:16:23.371Z,10.63
2018-08-06T00:18:52.919Z,8.77
2018-08-06T00:21:22.291Z,7.80
2018-08-06T00:23:51.816Z,10.17
2018-08-06T00:26:21.202Z,11.60
2018-08-06T00:28:50.842Z,14.30
2018-08-06T00:31:20.323Z,8.13
2018-08-06T00:33:49.690Z,12.30
2018-08-06T00:36:19.188Z,11.30
2018-08-06T00:38:48.683Z,13.70
2018-08-06T00:41:18.067Z,7.33
2018-08-06T00:43:47.444Z,8.00
2018-08-06T00:46:17.035Z,10.97
2018-08-06T00:48:46.382Z,9.13
2018-08-06T00:51:15.656Z,10.20
2018-08-06T00:53:44.998Z,11.10
2018-08-06T00:56:14.315Z,9.53
2018-08-06T00:58:43.699Z,6.77
2018-08-06T01:01:13.311Z,9.93
2018-08-06T01:03:42.830Z,6.80
2018-08-06T01:06:12.591Z,28.97
2018-08-06T01:08:42.220Z,27.20
2018-08-06T01:11:11.811Z,13.47
2018-08-06T01:13:41.370Z,13.43
2018-08-06T01:16:10.914Z,9.70
2018-08-06T01:18:40.304Z,9.20
2018-08-06T01:21:09.788Z,8.10
2018-08-06T01:23:39.185Z,7.63
2018-08-06T01:26:08.674Z,9.33
2018-08-06T01:28:38.208Z,8.30
2018-08-06T01:31:07.835Z,9.93
2018-08-06T01:33:37.326Z,9.63
2018-08-06T01:36:06.569Z,9.17
2018-08-06T01:38:35.950Z,7.85
2018-08-06T01:41:05.427Z,7.37
2018-08-06T01:43:34.906Z,7.47
2018-08-06T01:46:04.455Z,9.17
2018-08-06T01:48:34.752Z,8.07
2018-08-06T01:51:04.117Z,8.27
2018-08-06T01:53:33.478Z,6.37
2018-08-06T01:56:03.049Z,8.67
2018-08-06T01:58:32.510Z,9.20
2018-08-06T02:01:01.860Z,6.20
2018-08-06T02:03:31.266Z,8.90
2018-08-06T02:06:00.558Z,7.87
2018-08-06T02:08:30.043Z,12.33
2018-08-06T02:10:59.568Z,5.97
2018-08-06T02:13:29.081Z,9.83
2018-08-06T02:15:58.429Z,6.90
2018-08-06T02:18:28.382Z,10.40
2018-08-06T02:20:57.754Z,9.90
2018-08-06T02:23:27.170Z,8.13
2018-08-06T02:25:56.783Z,9.17
2018-08-06T02:28:26.402Z,8.77
2018-08-06T02:30:56.602Z,7.87
2018-08-06T02:33:25.986Z,7.93
2018-08-06T02:35:55.333Z,10.13
2018-08-06T02:38:24.830Z,14.00
2018-08-06T02:40:54.222Z,8.63
2018-08-06T02:43:23.649Z,12.70
2018-08-06T02:45:53.051Z,11.27
2018-08-06T02:48:22.338Z,8.83
2018-08-06T02:50:51.706Z,10.70
2018-08-06T02:53:21.056Z,9.03
2018-08-06T02:55:50.550Z,8.40
2018-08-06T02:58:19.875Z,10.83
2018-08-06T03:00:49.387Z,11.50
2018-08-06T03:03:18.742Z,9.35
2018-08-06T03:05:48.241Z,16.53
2018-08-06T03:08:17.839Z,11.73
2018-08-06T03:10:47.333Z,10.60
2018-08-06T03:13:17.558Z,13.40
2018-08-06T03:15:46.919Z,7.43
2018-08-06T03:18:16.310Z,6.83
2018-08-06T03:20:45.881Z,8.48
2018-08-06T03:23:15.412Z,7.23
2018-08-06T03:25:44.398Z,9.00
2018-08-06T03:28:13.797Z,9.67
2018-08-06T03:30:43.126Z,7.70
2018-08-06T03:33:12.524Z,12.37
2018-08-06T03:35:42.050Z,8.88
2018-08-06T03:38:11.425Z,6.27
2018-08-06T03:40:40.833Z,9.73
2018-08-06T03:43:10.238Z,8.93
2018-08-06T03:45:39.672Z,9.27
2018-08-06T03:48:09.314Z,6.53
2018-08-06T03:50:38.932Z,12.33
2018-08-06T03:53:08.378Z,8.30
2018-08-06T03:55:37.881Z,10.90
2018-08-06T03:58:07.391Z,13.83
2018-08-06T04:00:36.884Z,11.38
2018-08-06T04:03:06.463Z,9.47
2018-08-06T04:05:35.979Z,12.20
2018-08-06T04:08:05.354Z,12.70
2018-08-06T04:10:34.699Z,10.13
2018-08-06T04:13:04.218Z,13.60
2018-08-06T04:15:33.586Z,10.97
2018-08-06T04:18:03.114Z,11.97
2018-08-06T04:20:32.595Z,12.47
2018-08-06T04:23:02.082Z,11.93
2018-08-06T04:25:31.574Z,11.33
2018-08-06T04:28:00.914Z,11.63
2018-08-06T04:30:30.274Z,12.83
2018-08-06T04:32:59.607Z,17.57
2018-08-06T04:35:29.002Z,12.73
2018-08-06T04:37:58.390Z,15.72
2018-08-06T04:40:28.853Z,10.80
2018-08-06T04:42:58.314Z,10.87
2018-08-06T04:45:28.765Z,13.37
2018-08-06T04:47:58.257Z,12.03
2018-08-06T04:50:28.221Z,12.03
2018-08-06T04:52:57.522Z,14.00
2018-08-06T04:55:26.888Z,10.97
2018-08-06T04:57:56.253Z,9.17
2018-08-06T05:00:25.750Z,13.40
2018-08-06T05:02:55.106Z,14.30
2018-08-06T05:05:24.422Z,10.90
2018-08-06T05:07:53.934Z,13.37
2018-08-06T05:10:23.312Z,16.90
2018-08-06T05:12:52.698Z,9.77
2018-08-06T05:15:22.194Z,17.57
2018-08-06T05:17:51.574Z,12.80
2018-08-06T05:20:21.078Z,11.07
2018-08-06T05:22:50.534Z,11.77
2018-08-06T05:25:20.036Z,11.90
2018-08-06T05:27:49.503Z,11.30
2018-08-06T05:30:18.982Z,11.67
2018-08-06T05:32:48.395Z,13.50
2018-08-06T05:35:17.747Z,11.53
2018-08-06T05:37:47.254Z,15.63
2018-08-06T05:40:16.827Z,9.87
2018-08-06T05:42:46.358Z,11.17
2018-08-06T05:45:15.737Z,12.60
2018-08-06T05:47:45.395Z,9.47
2018-08-06T05:50:14.755Z,14.83
2018-08-06T05:52:44.162Z,12.40
2018-08-06T05:55:13.598Z,13.03
2018-08-06T05:57:43.152Z,10.30
2018-08-06T06:00:16.224Z,11.47
2018-08-06T06:02:46.158Z,13.18
2018-08-06T06:05:15.616Z,9.67
2018-08-06T06:07:45.233Z,11.08
2018-08-06T06:10:15.664Z,10.70
2018-08-06T06:12:45.238Z,10.67
2018-08-06T06:15:15.958Z,8.77
2018-08-06T06:17:45.471Z,8.20
2018-08-06T06:20:14.842Z,9.87
2018-08-06T06:22:44.530Z,5.90
2018-08-06T06:25:14.355Z,15.37
2018-08-06T06:27:44.167Z,12.17
2018-08-06T06:30:15.923Z,9.53
2018-08-06T06:32:46.938Z,7.85
2018-08-06T06:35:16.438Z,8.20
2018-08-06T06:37:45.925Z,13.50
2018-08-06T06:40:15.749Z,12.20
2018-08-06T06:42:45.315Z,7.75
2018-08-06T06:45:14.702Z,8.30
2018-08-06T06:47:44.550Z,9.07
2018-08-06T06:50:13.978Z,8.80
2018-08-06T06:52:43.438Z,7.97
2018-08-06T06:55:13.831Z,9.55
2018-08-06T06:57:44.121Z,9.08
2018-08-06T07:00:13.634Z,6.08
2018-08-06T07:02:43.018Z,7.25
2018-08-06T07:05:12.418Z,11.87
2018-08-06T07:07:41.783Z,6.63
2018-08-06T07:10:12.310Z,7.30
2018-08-06T07:12:41.720Z,4.58
2018-08-06T07:15:13.822Z,8.35
2018-08-06T07:17:45.127Z,5.70
2018-08-06T07:20:15.246Z,7.58
2018-08-06T07:22:44.726Z,4.50
2018-08-06T07:25:14.118Z,5.67
2018-08-06T07:27:43.939Z,4.92
2018-08-06T07:30:14.591Z,6.25
2018-08-06T07:32:44.610Z,5.60
2018-08-06T07:35:16.083Z,5.70
2018-08-06T07:37:45.767Z,6.53
2018-08-06T07:40:15.798Z,7.12
2018-08-06T07:42:45.269Z,4.72
2018-08-06T07:45:18.066Z,5.30
2018-08-06T07:47:48.194Z,5.95
2018-08-06T07:50:18.931Z,7.55
2018-08-06T07:52:48.450Z,7.17
2018-08-06T07:55:17.998Z,5.85
2018-08-06T07:57:47.359Z,6.58
2018-08-06T08:00:18.226Z,5.65
2018-08-06T08:02:47.854Z,4.60
2018-08-06T08:05:18.186Z,8.18
2018-08-06T08:07:48.570Z,5.50
2018-08-06T08:10:20.806Z,5.92
2018-08-06T08:12:50.190Z,6.53
2018-08-06T08:15:21.410Z,6.53
2018-08-06T08:17:51.036Z,5.47
2018-08-06T08:20:20.662Z,5.70
2018-08-06T08:22:50.095Z,5.75
2018-08-06T08:25:21.394Z,6.05
2018-08-06T08:27:50.795Z,3.73
2018-08-06T08:30:20.422Z,6.28
2018-08-06T08:32:49.735Z,4.87
2018-08-06T08:35:19.147Z,5.33
2018-08-06T08:37:48.687Z,5.22
2018-08-06T08:40:19.593Z,4.42
2018-08-06T08:42:48.952Z,4.53
2018-08-06T08:45:19.027Z,5.00
2018-08-06T08:47:49.366Z,5.90
2018-08-06T08:50:20.474Z,4.17
2018-08-06T08:52:50.159Z,6.15
2018-08-06T08:55:20.438Z,4.25
2018-08-06T08:57:49.932Z,5.65
2018-08-06T09:00:21.486Z,4.58
2018-08-06T09:02:51.814Z,5.65
2018-08-06T09:05:21.498Z,6.15
2018-08-06T09:07:51.634Z,3.42
2018-08-06T09:10:21.361Z,7.67
2018-08-06T09:12:50.954Z,6.08
2018-08-06T09:15:23.070Z,3.80
2018-08-06T09:17:52.471Z,3.97
2018-08-06T09:20:22.001Z,4.63
2018-08-06T09:22:51.370Z,7.90
2018-08-06T09:25:20.895Z,3.92
2018-08-06T09:27:51.047Z,4.12
2018-08-06T09:30:21.724Z,6.80
2018-08-06T09:32:53.000Z,3.87
2018-08-06T09:35:22.670Z,4.40
2018-08-06T09:37:52.108Z,3.87
2018-08-06T09:40:22.476Z,4.45
2018-08-06T09:42:52.271Z,4.47
2018-08-06T09:45:22.567Z,4.87
2018-08-06T09:47:53.010Z,5.55
2018-08-06T09:50:22.820Z,5.12
2018-08-06T09:52:53.278Z,5.80
2018-08-06T09:55:25.121Z,6.03
2018-08-06T09:57:54.442Z,4.37
2018-08-06T10:00:29.246Z,3.28
2018-08-06T10:03:00.015Z,4.78
2018-08-06T10:05:30.831Z,4.10
2018-08-06T10:08:00.402Z,4.62
2018-08-06T10:10:30.631Z,3.00
2018-08-06T10:13:00.144Z,5.30
2018-08-06T10:15:30.430Z,6.55
2018-08-06T10:17:59.941Z,7.47
2018-08-06T10:20:30.842Z,3.66
2018-08-06T10:23:00.320Z,3.70
2018-08-06T10:25:30.645Z,5.80
2018-08-06T10:27:59.963Z,4.28
2018-08-06T10:30:30.359Z,4.17
2018-08-06T10:32:59.825Z,3.90
2018-08-06T10:35:29.174Z,5.50
2018-08-06T10:37:58.563Z,5.80
2018-08-06T10:40:27.968Z,5.90
2018-08-06T10:42:57.446Z,4.53
2018-08-06T10:45:26.946Z,2.75
2018-08-06T10:47:56.391Z,2.55
2018-08-06T10:50:25.863Z,3.83
2018-08-06T10:52:55.246Z,5.53
2018-08-06T10:55:24.594Z,6.28
2018-08-06T10:57:53.934Z,4.65
2018-08-06T11:00:23.729Z,4.17
2018-08-06T11:02:52.982Z,4.97
2018-08-06T11:05:22.310Z,5.00
2018-08-06T11:07:51.647Z,4.67
2018-08-06T11:10:22.449Z,4.85
2018-08-06T11:12:51.807Z,4.30
2018-08-06T11:15:22.534Z,3.45
2018-08-06T11:17:51.940Z,4.85
2018-08-06T11:20:21.949Z,4.75
2018-08-06T11:22:51.579Z,3.98
2018-08-06T11:25:22.122Z,2.52
2018-08-06T11:27:51.544Z,4.62
2018-08-06T11:30:23.350Z,4.53
2018-08-06T11:32:53.612Z,5.37
2018-08-06T11:35:23.118Z,2.87
2018-08-06T11:37:52.826Z,2.17
2018-08-06T11:40:22.360Z,2.87
2018-08-06T11:42:51.717Z,2.72
2018-08-06T11:45:21.991Z,5.25
2018-08-06T11:47:51.440Z,2.72
2018-08-06T11:50:20.913Z,2.67
2018-08-06T11:52:50.278Z,3.15
2018-08-06T11:55:19.757Z,2.50
2018-08-06T11:57:49.032Z,2.87
2018-08-06T12:00:26.495Z,3.22
2018-08-06T12:02:55.998Z,5.20
2018-08-06T12:05:25.627Z,3.27
2018-08-06T12:07:55.150Z,2.00
2018-08-06T12:10:24.558Z,3.95
2018-08-06T12:12:53.922Z,3.42
2018-08-06T12:23:33.421Z,4.25
2018-08-06T12:26:02.797Z,2.95
2018-08-06T12:28:32.126Z,4.50
2018-08-06T12:31:01.442Z,1.60
2018-08-06T12:33:32.950Z,2.20
2018-08-06T12:36:02.299Z,2.25
2018-08-06T12:38:42.899Z,2.73
2018-08-06T12:41:12.495Z,3.77
2018-08-06T12:43:42.028Z,2.77
2018-08-06T12:46:11.343Z,3.35
2018-08-06T12:48:40.702Z,2.65
2018-08-06T12:51:10.234Z,2.40
2018-08-06T12:53:39.599Z,2.07
2018-08-06T12:56:08.962Z,2.60
2018-08-06T12:58:38.392Z,2.95
2018-08-06T13:01:07.798Z,2.98
2018-08-06T13:03:37.290Z,3.03
2018-08-06T13:06:06.662Z,4.65
2018-08-06T13:08:36.172Z,2.03
2018-08-06T13:11:05.596Z,1.52
2018-08-06T13:13:34.918Z,3.12
2018-08-06T13:16:04.678Z,1.80
2018-08-06T13:18:34.143Z,3.62
2018-08-06T13:21:03.486Z,3.80
2018-08-06T13:23:32.910Z,2.33
2018-08-06T13:26:02.303Z,3.00
2018-08-06T13:28:31.878Z,2.90
2018-08-06T13:31:01.227Z,3.02
2018-08-06T13:33:30.877Z,3.35
2018-08-06T13:36:00.272Z,3.42
2018-08-06T13:38:29.778Z,3.00
2018-08-06T13:40:59.164Z,2.70
2018-08-06T13:43:28.791Z,1.10
2018-08-06T13:45:58.118Z,2.42
2018-08-06T13:48:27.422Z,2.70
2018-08-06T13:50:56.810Z,5.47
2018-08-06T13:53:26.205Z,2.50
2018-08-06T13:55:55.627Z,1.87
2018-08-06T13:58:25.029Z,2.45
2018-08-06T14:00:54.424Z,3.35
2018-08-06T14:03:23.550Z,2.77
2018-08-06T14:05:52.906Z,4.40
2018-08-06T14:08:22.415Z,2.70
2018-08-06T14:10:51.770Z,2.75
2018-08-06T14:13:21.147Z,1.62
2018-08-06T14:15:50.640Z,2.47
2018-08-06T14:18:19.968Z,2.98
2018-08-06T14:20:49.010Z,2.80
2018-08-06T14:23:18.406Z,6.47
2018-08-06T14:25:47.886Z,5.77
2018-08-06T14:28:17.190Z,4.37
2018-08-06T14:30:46.523Z,4.17
2018-08-06T14:33:15.870Z,4.80
2018-08-06T14:35:45.306Z,3.40
2018-08-06T14:38:14.643Z,2.58
2018-08-06T14:40:44.016Z,4.90
2018-08-06T14:43:13.458Z,3.67
2018-08-06T14:45:42.974Z,2.70
2018-08-06T14:48:12.390Z,2.75
2018-08-06T14:50:41.863Z,5.07
2018-08-06T14:53:11.194Z,1.92
2018-08-06T14:55:40.558Z,2.02
2018-08-06T14:58:10.030Z,2.72
2018-08-06T15:00:39.378Z,2.65
2018-08-06T15:03:08.915Z,2.27
2018-08-06T15:05:38.351Z,4.33
2018-08-06T15:08:07.735Z,5.60
2018-08-06T15:10:37.079Z,3.20
2018-08-06T15:13:06.818Z,3.70
2018-08-06T15:15:36.394Z,5.20
2018-08-06T15:18:06.339Z,2.43
2018-08-06T15:20:35.712Z,2.57
2018-08-06T15:23:05.286Z,4.53
2018-08-06T15:25:34.736Z,2.13
2018-08-06T15:28:04.263Z,4.73
2018-08-06T15:30:33.675Z,4.75
2018-08-06T15:33:03.173Z,3.13
2018-08-06T15:35:32.565Z,4.63
2018-08-06T15:38:01.934Z,5.43
2018-08-06T15:40:32.115Z,2.72
2018-08-06T15:43:01.477Z,4.05
2018-08-06T15:45:31.926Z,1.73
2018-08-06T15:48:01.226Z,3.03
2018-08-06T15:50:30.596Z,3.27
2018-08-06T15:52:59.887Z,5.40
2018-08-06T15:55:29.206Z,2.23
2018-08-06T15:57:58.642Z,4.80
2018-08-06T16:00:28.154Z,3.83
2018-08-06T16:02:57.623Z,3.60
2018-08-06T16:05:27.114Z,3.77
2018-08-06T16:07:56.646Z,5.37
2018-08-06T16:10:26.118Z,1.70
2018-08-06T16:12:55.442Z,3.27
2018-08-06T16:15:24.890Z,4.05
2018-08-06T16:17:54.484Z,4.13
2018-08-06T16:20:23.990Z,2.23
2018-08-06T16:22:53.546Z,3.77
2018-08-06T16:25:23.866Z,2.53
2018-08-06T16:27:53.227Z,1.27
2018-08-06T16:30:23.846Z,3.97
2018-08-06T16:32:53.222Z,2.53
2018-08-06T16:35:23.811Z,2.50
2018-08-06T16:37:55.420Z,4.97
2018-08-06T16:40:24.943Z,3.73
2018-08-06T16:42:54.378Z,3.17
2018-08-06T16:45:23.754Z,2.93
2018-08-06T16:47:53.171Z,5.42
2018-08-06T16:50:22.630Z,2.43
2018-08-06T16:52:52.254Z,2.70
2018-08-06T16:55:21.750Z,4.87
2018-08-06T16:57:51.284Z,4.37
2018-08-06T17:00:22.334Z,3.60
2018-08-06T17:02:52.234Z,2.50
2018-08-06T17:05:21.710Z,2.37
2018-08-06T17:07:51.296Z,3.00
2018-08-06T17:10:21.407Z,3.73
2018-08-06T17:12:52.190Z,2.30
2018-08-06T17:15:22.028Z,2.27
2018-08-06T17:17:53.434Z,2.73
2018-08-06T17:20:23.830Z,2.23
2018-08-06T17:22:53.532Z,2.37
2018-08-06T17:25:23.110Z,3.07
2018-08-06T17:27:52.512Z,2.20
2018-08-06T17:30:22.013Z,2.13
2018-08-06T17:32:51.526Z,3.63
2018-08-06T17:35:20.886Z,4.17
2018-08-06T17:37:50.414Z,2.72
2018-08-06T17:40:19.943Z,1.60
2018-08-06T17:42:49.313Z,2.73
2018-08-06T17:45:20.238Z,1.50
2018-08-06T17:47:49.717Z,1.93
2018-08-06T17:50:20.302Z,2.13
2018-08-06T17:52:50.853Z,2.35
2018-08-06T17:55:20.978Z,2.03
2018-08-06T17:57:50.352Z,1.87
2018-08-06T18:00:20.219Z,3.00
2018-08-06T18:02:49.815Z,2.67
2018-08-06T18:05:19.885Z,2.80
2018-08-06T18:07:49.386Z,2.22
2018-08-06T18:10:18.918Z,3.27
2018-08-06T18:12:48.625Z,3.27
2018-08-06T18:15:18.106Z,2.13
2018-08-06T18:17:47.530Z,2.90
2018-08-06T18:20:19.039Z,2.27
2018-08-06T18:22:48.498Z,3.00
2018-08-06T18:25:19.194Z,4.60
2018-08-06T18:27:49.466Z,2.80
2018-08-06T18:30:21.255Z,1.63
2018-08-06T18:32:50.722Z,3.50
2018-08-06T18:35:20.409Z,4.97
2018-08-06T18:37:49.794Z,3.17
2018-08-06T18:40:20.032Z,2.63
2018-08-06T18:42:49.250Z,2.40
2018-08-06T18:45:19.842Z,4.90
2018-08-06T18:47:50.246Z,2.10
2018-08-06T18:50:20.801Z,2.40
2018-08-06T18:52:50.682Z,2.70
2018-08-06T18:55:20.410Z,1.70
2018-08-06T18:57:49.954Z,4.60
2018-08-06T19:00:23.224Z,2.67
2018-08-06T19:02:52.946Z,1.70
2018-08-06T19:05:22.311Z,1.40
2018-08-06T19:07:51.654Z,3.37
2018-08-06T19:10:21.114Z,2.77
2018-08-06T19:12:55.416Z,2.37
2018-08-06T19:15:24.712Z,3.20
2018-08-06T19:17:59.534Z,4.00
2018-08-06T19:20:29.066Z,3.27
2018-08-06T19:22:58.463Z,3.85
2018-08-06T19:25:29.398Z,2.27
2018-08-06T19:27:58.896Z,2.60
2018-08-06T19:30:33.610Z,3.43
2018-08-06T19:33:03.314Z,3.10
2018-08-06T19:35:32.835Z,5.40
2018-08-06T19:38:02.321Z,2.33
2018-08-06T19:40:33.118Z,3.63
2018-08-06T19:43:08.094Z,2.90
2018-08-06T19:45:38.150Z,3.05
2018-08-06T19:48:07.579Z,1.63
2018-08-06T19:50:39.845Z,3.87
2018-08-06T19:53:09.298Z,2.00
2018-08-06T19:55:44.379Z,4.03
2018-08-06T19:58:13.862Z,4.00
2018-08-06T20:00:43.376Z,2.50
2018-08-06T20:03:12.714Z,3.10
2018-08-06T20:05:42.092Z,2.95
2018-08-06T20:08:11.166Z,4.67
2018-08-06T20:10:40.441Z,4.73
2018-08-06T20:15:08.456Z,2.27
2018-08-06T20:17:37.946Z,3.23
2018-08-06T20:20:08.382Z,2.93
2018-08-06T20:22:37.734Z,5.77
2018-08-06T20:25:15.346Z,4.40
2018-08-06T20:27:45.440Z,4.03
2018-08-06T20:30:16.466Z,5.37
2018-08-06T20:32:45.790Z,3.90
2018-08-06T20:35:16.545Z,3.50
2018-08-06T20:37:46.233Z,15.88
2018-08-06T20:40:15.797Z,4.33
2018-08-06T20:42:46.053Z,2.87
2018-08-06T20:45:17.774Z,4.33
2018-08-06T20:47:47.250Z,6.90
2018-08-06T20:50:19.137Z,3.23
2018-08-06T20:52:49.674Z,4.03
2018-08-06T20:55:19.207Z,3.00
2018-08-06T20:57:49.528Z,4.87
2018-08-06T21:00:21.207Z,2.70
2018-08-06T21:02:51.081Z,3.03
2018-08-06T21:05:20.691Z,5.97
2018-08-06T21:07:50.110Z,3.97
2018-08-06T21:10:20.110Z,3.17
2018-08-06T21:12:49.909Z,2.73
2018-08-06T21:15:19.378Z,2.57
2018-08-06T21:17:48.754Z,3.58
2018-08-06T21:20:19.197Z,2.73
2018-08-06T21:22:49.361Z,3.03
2018-08-06T21:25:18.714Z,2.83
2018-08-06T21:27:49.070Z,5.37
2018-08-06T21:30:20.592Z,3.03
2018-08-06T21:32:52.873Z,3.05
2018-08-06T21:35:23.499Z,3.27
2018-08-06T21:37:53.945Z,3.83
2018-08-06T21:40:29.668Z,4.83
2018-08-06T21:42:59.064Z,3.10
2018-08-06T21:45:28.402Z,5.03
2018-08-06T21:47:57.719Z,5.23
2018-08-06T21:50:27.117Z,2.33
2018-08-06T21:52:56.380Z,4.57
2018-08-06T21:55:25.749Z,2.13
2018-08-06T21:57:55.272Z,2.77
2018-08-06T22:00:34.050Z,4.30
2018-08-06T22:03:04.805Z,3.50
2018-08-06T22:05:34.174Z,3.70
2018-08-06T22:10:12.250Z,4.00
2018-08-06T22:12:41.836Z,5.47
2018-08-06T22:15:11.377Z,3.20
2018-08-06T22:17:40.911Z,2.75
2018-08-06T22:20:11.703Z,4.80
2018-08-06T22:22:41.062Z,4.08
2018-08-06T22:25:10.375Z,4.67
2018-08-06T22:27:39.794Z,4.37
2018-08-06T22:30:09.389Z,2.13
2018-08-06T22:32:38.652Z,2.50
2018-08-06T22:35:10.011Z,3.00
2018-08-06T22:37:39.854Z,3.57
2018-08-06T22:40:11.047Z,3.97
2018-08-06T22:42:40.981Z,3.57
2018-08-06T22:45:12.128Z,3.33
2018-08-06T22:47:42.678Z,2.22
2018-08-06T22:50:13.223Z,4.13
2018-08-06T22:52:42.285Z,2.70
2018-08-06T22:55:12.992Z,5.30
2018-08-06T22:57:42.926Z,3.87
2018-08-06T23:00:14.993Z,5.10
2018-08-06T23:02:44.806Z,2.80
2018-08-06T23:05:15.806Z,2.40
2018-08-06T23:07:45.270Z,4.13
2018-08-06T23:10:16.242Z,3.30
2018-08-06T23:12:46.134Z,3.00
2018-08-06T23:15:16.514Z,2.43
2018-08-06T23:17:46.125Z,4.77
2018-08-06T23:20:15.426Z,2.87
2018-08-06T23:22:44.817Z,2.37
2018-08-06T23:25:13.818Z,3.30
2018-08-06T23:27:43.062Z,3.30
2018-08-06T23:30:14.970Z,3.30
2018-08-06T23:32:44.526Z,5.70
2018-08-06T23:35:14.447Z,3.13
2018-08-06T23:37:44.970Z,2.47
2018-08-06T23:40:14.912Z,3.83
2018-08-06T23:44:33.251Z,4.55
2018-08-06T23:47:02.630Z,3.67
2018-08-06T23:49:32.121Z,4.47
2018-08-06T23:52:01.456Z,3.87
2018-08-06T23:54:30.874Z,2.90
2018-08-06T23:57:00.294Z,6.77
2018-08-06T23:59:29.666Z,8.70
